Details for Air France Cargo at LFPG




Go Back


Latest METAR
Local Time

LFPG 240000Z 05011KT CAVOK M01/M07 Q1015 NOSIG

24/02/2018, 01:19:29

Description
Results
Air France Cargo Logo
Number of Pilots based at LFPG
0 Pilots Based here
Number of Air France Cargo Flights Departed from LFPG
1 Flights Departed
Number of Air France Cargo Flights Arrived at LFPG
0 Flights Arrived
Number of Air France Cargo Schedules Departing from LFPG
15 Schedules
Number of Air France Cargo Schedules Arriving at LFPG
16 Schedules
Number of Air France Cargo Schedules Departing from LFPG availible today
15 Schedules Today
Number of Air France Cargo Schedules Arriving at LFPG availible today
16 Schedules Today
Average Landing Rate at LFPG
-225 fpm
Air France Cargo Average Landing Rate at LFPG
0 fpm
Total Fuel Purchased at LFPG by Air France Cargo
51,815.22 kgs / 114,231.83 lbs

Pilots Based at LFPG


Pilot ID
Pilot Name
Pilot Rank
No. of Flights
No. of Flying Hours
There are no pilots assigned to this hub!   Will you be the first?
Content